Gannet Bulker — V7TX5 — position and weather

sailwx.info

Track history (hours):
 
Tides and Currents Weather Stations Pressure Air Temp Water Temp Dewpoint Dewpoint Depression Visibility Wind Speed Wind Dir Waves Ship Positions

Gannet Bulker

Last reported at 2017-Sep-07 19:52 UTC. Time now 2017-Nov-20 17:06 UTC.
Position N 09°07' W 079°43'.
Warning: this ship's position is months out of date.

Length 190 m; draft 12 m.

Type: Cargo ship. MMSI: 538003902.

Date/timePositionNaut miles runAvg speedWind from/ knotsBaromVisibWave heightAir tempDewpointWater temp
2017-Sep-07 19:52N 09°07' W 079°43'2 5.6
2017-Sep-07 19:30N 09°07' W 079°45'4 4.8
2017-Sep-07 18:44N 09°08' W 079°49'8 8.0
2017-Sep-07 17:44N 09°13' W 079°55'2 9.0
2017-Sep-07 17:30N 09°15' W 079°55'2 3.3
2017-Sep-07 17:00N 09°16' W 079°55'0 0.3
2017-Sep-07 16:30N 09°16' W 079°55'0 0.4
2017-Sep-07 15:59N 09°17' W 079°55'0 0.3
2017-Sep-07 15:30N 09°17' W 079°55'0 0.2
2017-Sep-07 15:00N 09°17' W 079°55'1 1.3
2017-Sep-07 14:30N 09°18' W 079°55'1 2.0
2017-Sep-07 14:00N 09°19' W 079°55'3 6.6
2017-Sep-07 13:30N 09°22' W 079°55'2 3.8
2017-Sep-07 13:00N 09°24' W 079°55'1 2.9
2017-Sep-07 12:30N 09°25' W 079°55'1 1.8
2017-Sep-07 12:00N 09°26' W 079°56'0 0.8
2017-Sep-07 11:30N 09°25' W 079°56'0 0.1
2017-Sep-07 11:00N 09°25' W 079°56'0 0.0
2017-Sep-07 10:30N 09°25' W 079°56'0 0.0
2017-Sep-07 10:00N 09°25' W 079°56'0 0.0
2017-Sep-07 09:30N 09°25' W 079°56'0 0.0
2017-Sep-07 09:00N 09°25' W 079°56'0 0.0
2017-Sep-07 08:30N 09°25' W 079°56'0 0.0
2017-Sep-07 08:00N 09°25' W 079°56'0 0.0
2017-Sep-07 07:30N 09°25' W 079°56'0 0.0
2017-Sep-07 07:00N 09°25' W 079°56'0 0.0
2017-Sep-07 06:30N 09°25' W 079°56'0 0.0
2017-Sep-07 06:00N 09°25' W 079°56'0 0.0
2017-Sep-07 05:30N 09°25' W 079°56'0 0.0
2017-Sep-07 05:00N 09°25' W 079°56'0 0.0
2017-Sep-07 04:30N 09°25' W 079°56'0 0.0
2017-Sep-07 04:00N 09°25' W 079°56'0 0.0
2017-Sep-07 03:30N 09°25' W 079°56'0 0.0
2017-Sep-07 03:00N 09°25' W 079°56'0 0.0
2017-Sep-07 02:30N 09°25' W 079°56'0 0.0
2017-Sep-07 02:00N 09°25' W 079°56'0 0.0
2017-Sep-07 01:30N 09°25' W 079°56'0 0.0
2017-Sep-07 01:00N 09°25' W 079°56'0 0.0
2017-Sep-07 00:30N 09°25' W 079°56'0 0.0
2017-Sep-07 00:00N 09°25' W 079°56'0 0.0
2017-Sep-06 23:30N 09°25' W 079°56'0 0.0
2017-Sep-06 23:00N 09°25' W 079°56'0 0.0
2017-Sep-06 22:30N 09°25' W 079°56'0 0.0
2017-Sep-06 22:00N 09°25' W 079°56'0 0.0
2017-Sep-06 21:30N 09°25' W 079°56'0 0.0
2017-Sep-06 21:00N 09°25' W 079°56'0 0.0
2017-Sep-06 20:30N 09°25' W 079°56'0 0.0
2017-Sep-06 20:00N 09°25' W 079°56'0 0.1
2017-Sep-06 19:30N 09°25' W 079°56'1 1.4
2017-Sep-06 19:01N 09°26' W 079°56'510.2
2017-Sep-06 18:31N 09°31' W 079°54'  
2017-Sep-01 11:20N 29°56' W 090°22'  
Track history (hours):
 
Tides and Currents Weather Stations Pressure Air Temp Water Temp Dewpoint Dewpoint Depression Visibility Wind Speed Wind Dir Waves Ship Positions

Gannet Bulker

Last reported at 2017-Sep-07 19:52 UTC. Time now 2017-Nov-20 17:06 UTC.
Position N 09°07' W 079°43'.
Warning: this ship's position is months out of date.

Length 190 m; draft 12 m.

Type: Cargo ship. MMSI: 538003902.

Date/timePositionNaut miles runAvg speedWind from/ knotsBaromVisibWave heightAir tempDewpointWater temp
2017-Sep-07 19:52N 09°07' W 079°43'2 5.6
2017-Sep-07 19:30N 09°07' W 079°45'4 4.8
2017-Sep-07 18:44N 09°08' W 079°49'8 8.0
2017-Sep-07 17:44N 09°13' W 079°55'2 9.0
2017-Sep-07 17:30N 09°15' W 079°55'2 3.3
2017-Sep-07 17:00N 09°16' W 079°55'0 0.3
2017-Sep-07 16:30N 09°16' W 079°55'0 0.4
2017-Sep-07 15:59N 09°17' W 079°55'0 0.3
2017-Sep-07 15:30N 09°17' W 079°55'0 0.2
2017-Sep-07 15:00N 09°17' W 079°55'1 1.3
2017-Sep-07 14:30N 09°18' W 079°55'1 2.0
2017-Sep-07 14:00N 09°19' W 079°55'3 6.6
2017-Sep-07 13:30N 09°22' W 079°55'2 3.8
2017-Sep-07 13:00N 09°24' W 079°55'1 2.9
2017-Sep-07 12:30N 09°25' W 079°55'1 1.8
2017-Sep-07 12:00N 09°26' W 079°56'0 0.8
2017-Sep-07 11:30N 09°25' W 079°56'0 0.1
2017-Sep-07 11:00N 09°25' W 079°56'0 0.0
2017-Sep-07 10:30N 09°25' W 079°56'0 0.0
2017-Sep-07 10:00N 09°25' W 079°56'0 0.0
2017-Sep-07 09:30N 09°25' W 079°56'0 0.0
2017-Sep-07 09:00N 09°25' W 079°56'0 0.0
2017-Sep-07 08:30N 09°25' W 079°56'0 0.0
2017-Sep-07 08:00N 09°25' W 079°56'0 0.0
2017-Sep-07 07:30N 09°25' W 079°56'0 0.0
2017-Sep-07 07:00N 09°25' W 079°56'0 0.0
2017-Sep-07 06:30N 09°25' W 079°56'0 0.0
2017-Sep-07 06:00N 09°25' W 079°56'0 0.0
2017-Sep-07 05:30N 09°25' W 079°56'0 0.0
2017-Sep-07 05:00N 09°25' W 079°56'0 0.0
2017-Sep-07 04:30N 09°25' W 079°56'0 0.0
2017-Sep-07 04:00N 09°25' W 079°56'0 0.0
2017-Sep-07 03:30N 09°25' W 079°56'0 0.0
2017-Sep-07 03:00N 09°25' W 079°56'0 0.0
2017-Sep-07 02:30N 09°25' W 079°56'0 0.0
2017-Sep-07 02:00N 09°25' W 079°56'0 0.0
2017-Sep-07 01:30N 09°25' W 079°56'0 0.0
2017-Sep-07 01:00N 09°25' W 079°56'0 0.0
2017-Sep-07 00:30N 09°25' W 079°56'0 0.0
2017-Sep-07 00:00N 09°25' W 079°56'0 0.0
2017-Sep-06 23:30N 09°25' W 079°56'0 0.0
2017-Sep-06 23:00N 09°25' W 079°56'0 0.0
2017-Sep-06 22:30N 09°25' W 079°56'0 0.0
2017-Sep-06 22:00N 09°25' W 079°56'0 0.0
2017-Sep-06 21:30N 09°25' W 079°56'0 0.0
2017-Sep-06 21:00N 09°25' W 079°56'0 0.0
2017-Sep-06 20:30N 09°25' W 079°56'0 0.0
2017-Sep-06 20:00N 09°25' W 079°56'0 0.1
2017-Sep-06 19:30N 09°25' W 079°56'1 1.4
2017-Sep-06 19:01N 09°26' W 079°56'510.2
2017-Sep-06 18:31N 09°31' W 079°54'  
2017-Sep-01 11:20N 29°56' W 090°22'  

Dump ship's entire track history